Time,TemperatureF,DewpointF,PressureIn,WindDirection,WindDirectionDegrees,WindSpeedMPH,WindSpeedGustMPH,Humidity,HourlyPrecipIn,Conditions,Clouds,dailyrainin,SoftwareType,DateUTC
2013-05-07 00:00:00,57.7,56.6,30.05,SE,134,0.0,2.0,96,0.58,,,1.83,VWS V14.01,2013-05-07 04:00:00,
2013-05-07 00:01:00,57.1,56.3,30.05,ESE,107,0.0,1.0,97,0.31,,,1.84,VWS V14.01,2013-05-07 04:01:00,
2013-05-07 00:02:00,57.1,56.3,30.05,ESE,107,1.0,1.0,97,0.31,,,1.84,VWS V14.01,2013-05-07 04:02:00,
2013-05-07 00:05:00,57.1,56.3,30.05,ESE,108,0.0,1.0,97,0.31,,,1.84,VWS V14.01,2013-05-07 04:05:00,
2013-05-07 00:11:00,57.1,56.3,30.05,ESE,108,0.0,0.0,97,0.01,,,0.00,VWS V14.01,2013-05-07 04:11:00,
2013-05-07 00:14:00,57.2,56.4,30.05,ESE,108,0.0,0.0,97,0.01,,,0.00,VWS V14.01,2013-05-07 04:14:00,
2013-05-07 00:20:00,57.1,56.3,30.05,ESE,108,0.0,0.0,97,0.01,,,0.00,VWS V14.01,2013-05-07 04:20:00,
2013-05-07 00:26:00,57.1,56.3,30.05,ESE,107,0.0,0.0,97,0.01,,,0.00,VWS V14.01,2013-05-07 04:26:00,
2013-05-07 00:30:00,57.4,56.6,30.05,ESE,108,0.0,3.0,97,0.50,,,1.83,VWS V14.01,2013-05-07 04:30:00,
2013-05-07 00:32:00,57.1,56.3,30.05,ESE,108,0.0,0.0,97,0.01,,,0.00,VWS V14.01,2013-05-07 04:32:00,
2013-05-07 00:38:00,57.1,56.3,30.05,ESE,107,0.0,0.0,97,0.01,,,0.00,VWS V14.01,2013-05-07 04:38:00,
2013-05-07 00:44:00,57.1,56.3,30.05,ESE,108,0.0,0.0,97,0.01,,,0.00,VWS V14.01,2013-05-07 04:44:00,
2013-05-07 00:50:00,57.1,56.3,30.05,ESE,108,0.0,0.0,97,0.01,,,0.00,VWS V14.01,2013-05-07 04:50:00,
2013-05-07 00:55:00,57.1,56.3,30.05,East,88,0.0,3.0,97,0.01,,,0.00,VWS V14.01,2013-05-07 04:55:00,
2013-05-07 01:00:00,57.1,56.3,30.05,ESE,107,0.0,1.0,97,0.31,,,0.00,VWS V14.01,2013-05-07 05:00:00,
2013-05-07 01:01:00,57.2,56.4,30.05,East,82,0.0,3.0,97,0.01,,,0.00,VWS V14.01,2013-05-07 05:01:00,
2013-05-07 01:07:00,57.2,56.4,30.05,East,81,0.0,1.0,97,0.00,,,0.00,VWS V14.01,2013-05-07 05:07:00,
2013-05-07 01:13:00,57.2,56.4,30.04,ENE,68,0.0,3.0,97,0.00,,,0.00,VWS V14.01,2013-05-07 05:13:00,
2013-05-07 01:18:00,57.2,56.4,30.04,ENE,68,0.0,3.0,97,0.00,,,0.00,VWS V14.01,2013-05-07 05:18:00,
2013-05-07 01:24:00,57.2,56.4,30.04,ENE,69,0.0,3.0,97,0.00,,,0.00,VWS V14.01,2013-05-07 05:24:00,
2013-05-07 01:30:00,57.3,56.5,30.04,ENE,68,0.0,3.0,97,0.00,,,0.00,VWS V14.01,2013-05-07 05:30:00,
2013-05-07 01:36:00,57.3,56.5,30.04,ENE,68,0.0,0.0,97,0.00,,,0.00,VWS V14.01,2013-05-07 05:36:00,
2013-05-07 01:42:00,57.3,56.5,30.04,ENE,69,0.0,0.0,97,0.00,,,0.00,VWS V14.01,2013-05-07 05:42:00,
2013-05-07 01:48:00,57.3,56.5,30.04,ENE,68,0.0,0.0,97,0.00,,,0.00,VWS V14.01,2013-05-07 05:48:00,
2013-05-07 01:54:00,57.3,56.5,30.04,ENE,69,0.0,0.0,97,0.00,,,0.00,VWS V14.01,2013-05-07 05:54:00,
2013-05-07 02:00:00,57.3,56.5,30.04,ENE,68,0.0,0.0,97,0.00,,,0.00,VWS V14.01,2013-05-07 06:00:00,
2013-05-07 02:05:00,57.3,56.5,30.03,ENE,68,0.0,0.0,97,0.00,,,0.00,VWS V14.01,2013-05-07 06:05:00,
2013-05-07 02:10:00,57.4,56.6,30.03,ENE,68,0.0,0.0,97,0.00,,,0.00,VWS V14.01,2013-05-07 06:10:00,
2013-05-07 02:16:00,57.4,56.6,30.03,ENE,68,0.0,0.0,97,0.00,,,0.00,VWS V14.01,2013-05-07 06:16:00,
2013-05-07 02:22:00,57.4,56.6,30.03,ENE,69,0.0,0.0,97,0.00,,,0.00,VWS V14.01,2013-05-07 06:22:00,
2013-05-07 02:28:00,57.5,56.7,30.03,ENE,69,0.0,0.0,97,0.00,,,0.00,VWS V14.01,2013-05-07 06:28:00,
2013-05-07 02:30:00,57.3,56.5,30.04,ENE,69,0.0,3.0,97,0.00,,,0.00,VWS V14.01,2013-05-07 06:30:00,
2013-05-07 02:33:00,57.5,56.9,30.03,ENE,69,0.0,0.0,98,0.00,,,0.00,VWS V14.01,2013-05-07 06:33:00,
2013-05-07 02:39:00,57.6,57.0,30.03,ENE,69,0.0,0.0,98,0.00,,,0.00,VWS V14.01,2013-05-07 06:39:00,
2013-05-07 02:45:00,57.6,57.0,30.03,ENE,68,0.0,0.0,98,0.00,,,0.00,VWS V14.01,2013-05-07 06:45:00,
2013-05-07 02:51:00,57.6,57.0,30.02,ENE,69,0.0,0.0,98,0.00,,,0.00,VWS V14.01,2013-05-07 06:51:00,
2013-05-07 02:57:00,57.6,57.0,30.02,ENE,69,0.0,0.0,98,0.00,,,0.00,VWS V14.01,2013-05-07 06:57:00,
2013-05-07 03:00:00,57.3,56.5,30.03,ENE,68,0.0,0.0,97,0.00,,,0.00,VWS V14.01,2013-05-07 07:00:00,
2013-05-07 03:03:00,57.5,56.9,30.02,ENE,68,0.0,0.0,98,0.00,,,0.00,VWS V14.01,2013-05-07 07:03:00,
2013-05-07 03:08:00,57.6,57.0,30.02,ENE,69,1.0,2.0,98,0.00,,,0.00,VWS V14.01,2013-05-07 07:08:00,
2013-05-07 03:14:00,57.6,57.0,30.02,ENE,68,2.0,3.0,98,0.00,,,0.00,VWS V14.01,2013-05-07 07:14:00,
2013-05-07 03:20:00,57.6,57.0,30.02,NE,52,3.0,3.0,98,0.00,,,0.00,VWS V14.01,2013-05-07 07:20:00,
2013-05-07 03:26:00,57.5,56.9,30.02,NE,52,0.0,3.0,98,0.00,,,0.00,VWS V14.01,2013-05-07 07:26:00,
2013-05-07 03:30:00,57.5,56.9,30.03,ENE,68,0.0,0.0,98,0.00,,,0.00,VWS V14.01,2013-05-07 07:30:00,
2013-05-07 03:32:00,57.5,56.9,30.02,NE,52,0.0,3.0,98,0.00,,,0.00,VWS V14.01,2013-05-07 07:32:00,
2013-05-07 03:38:00,57.4,56.8,30.02,NE,52,0.0,0.0,98,0.00,,,0.00,VWS V14.01,2013-05-07 07:38:00,
2013-05-07 03:44:00,57.3,56.7,30.02,NE,52,0.0,0.0,98,0.00,,,0.00,VWS V14.01,2013-05-07 07:44:00,
2013-05-07 03:49:00,57.3,56.7,30.02,NE,52,0.0,0.0,98,0.00,,,0.00,VWS V14.01,2013-05-07 07:49:00,
2013-05-07 03:55:00,57.2,56.6,30.02,NE,52,0.0,1.0,98,0.00,,,0.00,VWS V14.01,2013-05-07 07:55:00,
2013-05-07 04:00:00,57.5,56.9,30.02,ENE,69,0.0,0.0,98,0.00,,,0.00,VWS V14.01,2013-05-07 08:00:00,
2013-05-07 04:01:00,57.1,56.5,30.02,NE,52,0.0,2.0,98,0.00,,,0.00,VWS V14.01,2013-05-07 08:01:00,
2013-05-07 04:07:00,57.0,56.4,30.02,NE,52,1.0,2.0,98,0.00,,,0.00,VWS V14.01,2013-05-07 08:07:00,
2013-05-07 04:13:00,56.8,56.2,30.02,NE,52,0.0,2.0,98,0.00,,,0.00,VWS V14.01,2013-05-07 08:13:00,
2013-05-07 04:19:00,56.7,56.1,30.02,NE,52,0.0,2.0,98,0.00,,,0.00,VWS V14.01,2013-05-07 08:19:00,
2013-05-07 04:24:00,56.7,56.1,30.02,NE,52,0.0,2.0,98,0.00,,,0.00,VWS V14.01,2013-05-07 08:24:00,
2013-05-07 04:30:00,56.6,56.0,30.02,NE,52,0.0,3.0,98,0.00,,,0.00,VWS V14.01,2013-05-07 08:30:00,
2013-05-07 04:35:00,56.5,55.9,30.02,NE,52,0.0,3.0,98,0.00,,,0.00,VWS V14.01,2013-05-07 08:35:00,
2013-05-07 04:41:00,56.3,55.8,30.02,NE,52,0.0,0.0,98,0.00,,,0.00,VWS V14.01,2013-05-07 08:41:00,
2013-05-07 04:47:00,56.3,55.8,30.02,NE,52,0.0,0.0,98,0.00,,,0.00,VWS V14.01,2013-05-07 08:47:00,
2013-05-07 04:53:00,56.2,55.7,30.02,NE,52,0.0,0.0,98,0.00,,,0.00,VWS V14.01,2013-05-07 08:53:00,
2013-05-07 04:58:00,56.1,55.5,30.02,NE,52,0.0,0.0,98,0.00,,,0.00,VWS V14.01,2013-05-07 08:58:00,
2013-05-07 05:00:00,57.0,56.4,30.02,NE,52,0.0,2.0,98,0.00,,,0.00,VWS V14.01,2013-05-07 09:00:00,
2013-05-07 05:04:00,56.1,55.5,30.02,NE,52,0.0,0.0,98,0.00,,,0.00,VWS V14.01,2013-05-07 09:04:00,
2013-05-07 05:10:00,56.1,55.5,30.02,NE,52,0.0,0.0,98,0.00,,,0.00,VWS V14.01,2013-05-07 09:10:00,
2013-05-07 05:16:00,56.0,55.5,30.02,NE,52,0.0,0.0,98,0.00,,,0.00,VWS V14.01,2013-05-07 09:16:00,
2013-05-07 05:22:00,56.0,55.5,30.02,NE,52,0.0,0.0,98,0.00,,,0.00,VWS V14.01,2013-05-07 09:22:00,
2013-05-07 05:28:00,56.0,55.5,30.02,NE,52,0.0,0.0,98,0.00,,,0.00,VWS V14.01,2013-05-07 09:28:00,
2013-05-07 05:30:00,56.5,55.9,30.02,NE,52,0.0,3.0,98,0.00,,,0.00,VWS V14.01,2013-05-07 09:30:00,
2013-05-07 05:33:00,55.8,55.2,30.02,NE,52,0.0,0.0,98,0.00,,,0.00,VWS V14.01,2013-05-07 09:33:00,
2013-05-07 05:39:00,55.7,55.2,30.02,NE,52,0.0,0.0,98,0.00,,,0.00,VWS V14.01,2013-05-07 09:39:00,
2013-05-07 05:45:00,55.5,55.0,30.02,NE,52,0.0,0.0,98,0.00,,,0.00,VWS V14.01,2013-05-07 09:45:00,
2013-05-07 05:51:00,55.4,54.8,30.02,NE,52,0.0,0.0,98,0.00,,,0.00,VWS V14.01,2013-05-07 09:51:00,
2013-05-07 05:57:00,55.3,54.8,30.02,NE,52,0.0,0.0,98,0.00,,,0.00,VWS V14.01,2013-05-07 09:57:00,
2013-05-07 06:00:00,56.1,55.5,30.02,NE,52,0.0,0.0,98,0.00,,,0.00,VWS V14.01,2013-05-07 10:00:00,
2013-05-07 06:02:00,55.1,54.5,30.02,NE,52,0.0,0.0,98,0.00,,,0.00,VWS V14.01,2013-05-07 10:02:00,
2013-05-07 06:08:00,55.1,54.5,30.02,NE,52,0.0,0.0,98,0.00,,,0.00,VWS V14.01,2013-05-07 10:08:00,
2013-05-07 06:14:00,55.0,54.5,30.02,NE,52,0.0,0.0,98,0.00,,,0.00,VWS V14.01,2013-05-07 10:14:00,
2013-05-07 06:20:00,55.1,54.5,30.02,NE,52,0.0,0.0,98,0.00,,,0.00,VWS V14.01,2013-05-07 10:20:00,
2013-05-07 06:26:00,55.0,54.5,30.03,NE,52,0.0,0.0,98,0.00,,,0.00,VWS V14.01,2013-05-07 10:26:00,
2013-05-07 06:30:00,55.8,55.2,30.02,NE,52,0.0,0.0,98,0.00,,,0.00,VWS V14.01,2013-05-07 10:30:00,
2013-05-07 06:31:00,55.0,54.5,30.03,NE,52,0.0,0.0,98,0.00,,,0.00,VWS V14.01,2013-05-07 10:31:00,
2013-05-07 06:37:00,55.0,54.5,30.03,NE,52,0.0,0.0,98,0.00,,,0.00,VWS V14.01,2013-05-07 10:37:00,
2013-05-07 06:43:00,55.1,54.5,30.03,ENE,61,0.0,0.0,98,0.00,,,0.00,VWS V14.01,2013-05-07 10:43:00,
2013-05-07 06:48:00,55.1,54.5,30.04,NE,51,0.0,0.0,98,0.00,,,0.00,VWS V14.01,2013-05-07 10:48:00,
2013-05-07 06:54:00,55.2,54.7,30.04,NE,51,0.0,0.0,98,0.00,,,0.00,VWS V14.01,2013-05-07 10:54:00,
2013-05-07 07:00:00,55.2,54.7,30.04,NE,51,0.0,0.0,98,0.00,,,0.00,VWS V14.01,2013-05-07 11:00:00,
2013-05-07 07:05:00,55.3,54.8,30.04,NE,51,0.0,0.0,98,0.00,,,0.00,VWS V14.01,2013-05-07 11:05:00,
2013-05-07 07:11:00,55.3,54.8,30.04,NE,51,0.0,0.0,98,0.00,,,0.00,VWS V14.01,2013-05-07 11:11:00,
2013-05-07 07:16:00,55.4,54.8,30.04,NE,51,0.0,0.0,98,0.00,,,0.00,VWS V14.01,2013-05-07 11:16:00,
2013-05-07 07:22:00,55.4,54.8,30.04,NE,51,0.0,0.0,98,0.00,,,0.00,VWS V14.01,2013-05-07 11:22:00,
2013-05-07 07:28:00,55.4,54.8,30.04,NE,51,0.0,0.0,98,0.00,,,0.00,VWS V14.01,2013-05-07 11:28:00,
2013-05-07 07:30:00,55.0,54.5,30.03,NE,52,0.0,0.0,98,0.00,,,0.00,VWS V14.01,2013-05-07 11:30:00,
2013-05-07 07:34:00,55.4,54.8,30.04,NE,51,0.0,2.0,98,0.00,,,0.00,VWS V14.01,2013-05-07 11:34:00,
2013-05-07 07:40:00,55.3,54.8,30.05,NE,51,0.0,3.0,98,0.00,,,0.00,VWS V14.01,2013-05-07 11:40:00,
2013-05-07 07:45:00,55.3,54.8,30.04,NE,51,0.0,3.0,98,0.00,,,0.00,VWS V14.01,2013-05-07 11:45:00,
2013-05-07 07:51:00,55.3,54.8,30.04,NE,51,0.0,3.0,98,0.00,,,0.00,VWS V14.01,2013-05-07 11:51:00,
2013-05-07 07:57:00,55.4,54.8,30.04,NE,51,0.0,3.0,98,0.00,,,0.00,VWS V14.01,2013-05-07 11:57:00,
2013-05-07 08:00:00,55.3,54.8,30.04,NE,51,0.0,0.0,98,0.00,,,0.00,VWS V14.01,2013-05-07 12:00:00,
2013-05-07 08:03:00,55.6,55.0,30.04,NE,51,0.0,3.0,98,0.00,,,0.00,VWS V14.01,2013-05-07 12:03:00,
2013-05-07 08:08:00,55.7,55.2,30.05,NE,51,0.0,0.0,98,0.00,,,0.00,VWS V14.01,2013-05-07 12:08:00,
2013-05-07 08:14:00,55.8,55.2,30.05,NE,51,0.0,0.0,98,0.00,,,0.00,VWS V14.01,2013-05-07 12:14:00,
2013-05-07 08:20:00,56.1,55.5,30.04,NE,51,0.0,0.0,98,0.00,,,0.00,VWS V14.01,2013-05-07 12:20:00,
2013-05-07 08:26:00,56.4,55.8,30.05,NE,51,0.0,0.0,98,0.00,,,0.00,VWS V14.01,2013-05-07 12:26:00,
2013-05-07 08:30:00,55.4,54.8,30.04,NE,51,0.0,2.0,98,0.00,,,0.00,VWS V14.01,2013-05-07 12:30:00,
2013-05-07 08:31:00,56.8,56.2,30.05,NE,51,0.0,0.0,98,0.00,,,0.00,VWS V14.01,2013-05-07 12:31:00,
2013-05-07 08:37:00,57.0,56.4,30.05,NE,51,0.0,0.0,98,0.00,,,0.00,VWS V14.01,2013-05-07 12:37:00,
2013-05-07 08:43:00,57.2,56.6,30.05,NE,51,0.0,0.0,98,0.00,,,0.00,VWS V14.01,2013-05-07 12:43:00,
2013-05-07 09:00:00,57.7,57.1,30.06,ESE,112,0.0,2.0,98,0.00,,,0.00,VWS V14.01,2013-05-07 13:00:00,
2013-05-07 09:30:00,58.3,57.5,30.07,South,180,0.0,1.0,97,0.00,,,0.00,VWS V14.01,2013-05-07 13:30:00,
2013-05-07 10:00:00,60.0,58.6,30.08,South,180,0.0,1.0,95,0.00,,,0.00,VWS V14.01,2013-05-07 14:00:00,
2013-05-07 10:30:00,61.3,58.0,30.08,South,180,0.0,3.0,89,0.00,,,0.00,VWS V14.01,2013-05-07 14:30:00,
2013-05-07 11:00:00,62.2,58.3,30.08,SSW,202,0.0,4.0,87,0.00,,,0.00,VWS V14.01,2013-05-07 15:00:00,
2013-05-07 11:30:00,64.0,57.4,30.07,SW,225,1.0,5.0,79,0.00,,,0.00,VWS V14.01,2013-05-07 15:30:00,
2013-05-07 12:00:00,65.7,59.7,30.07,SSW,202,0.0,5.0,81,0.00,,,0.00,VWS V14.01,2013-05-07 16:00:00,
2013-05-07 12:30:00,66.1,56.8,30.06,WSW,248,1.0,6.0,72,0.00,,,0.00,VWS V14.01,2013-05-07 16:30:00,
2013-05-07 13:00:00,64.1,56.0,30.06,SSW,202,1.0,6.0,75,0.00,,,0.00,VWS V14.01,2013-05-07 17:00:00,
2013-05-07 13:30:00,61.6,55.7,30.06,SSW,202,0.0,4.0,81,0.01,,,0.01,VWS V14.01,2013-05-07 17:30:00,
2013-05-07 14:00:00,64.7,57.0,30.05,South,180,0.0,2.0,76,0.01,,,0.01,VWS V14.01,2013-05-07 18:00:00,
2013-05-07 14:30:00,66.8,58.3,30.04,WSW,248,1.0,9.0,74,0.01,,,0.01,VWS V14.01,2013-05-07 18:30:00,
2013-05-07 15:00:00,67.8,53.9,30.03,South,180,1.0,7.0,61,0.00,,,0.01,VWS V14.01,2013-05-07 19:00:00,
2013-05-07 15:30:00,68.0,56.2,30.02,WSW,248,1.0,9.0,66,0.00,,,0.01,VWS V14.01,2013-05-07 19:30:00,
2013-05-07 16:00:00,67.5,55.3,30.02,SW,225,0.0,5.0,65,0.00,,,0.01,VWS V14.01,2013-05-07 20:00:00,
2013-05-07 16:30:00,69.4,53.5,30.02,SW,225,1.0,9.0,57,0.00,,,0.01,VWS V14.01,2013-05-07 20:30:00,
2013-05-07 17:00:00,68.9,51.6,30.02,WSW,248,1.0,9.0,54,0.00,,,0.01,VWS V14.01,2013-05-07 21:00:00,
2013-05-07 17:30:00,67.3,50.6,30.03,SW,225,0.0,5.0,55,0.00,,,0.01,VWS V14.01,2013-05-07 21:30:00,
2013-05-07 18:00:00,66.6,52.8,30.03,West,270,0.0,5.0,61,0.00,,,0.01,VWS V14.01,2013-05-07 22:00:00,
2013-05-07 18:30:00,65.3,52.0,30.04,SW,225,0.0,6.0,62,0.00,,,0.01,VWS V14.01,2013-05-07 22:30:00,
2013-05-07 19:00:00,61.7,53.0,30.07,NNW,338,1.0,11.0,73,0.00,,,0.01,VWS V14.01,2013-05-07 23:00:00,
2013-05-07 19:30:00,59.2,52.7,30.06,NE,45,1.0,9.0,79,0.00,,,0.01,VWS V14.01,2013-05-07 23:30:00,
2013-05-07 20:00:00,57.9,52.5,30.07,NE,45,0.0,5.0,82,0.00,,,0.01,VWS V14.01,2013-05-08 00:00:00,
2013-05-07 20:30:00,56.6,51.8,30.08,NE,45,0.0,0.0,84,0.00,,,0.01,VWS V14.01,2013-05-08 00:30:00,
2013-05-07 21:00:00,55.5,51.7,30.10,NE,45,0.0,0.0,87,0.00,,,0.01,VWS V14.01,2013-05-08 01:00:00,
2013-05-07 21:30:00,54.5,51.3,30.10,NE,45,0.0,0.0,89,0.00,,,0.01,VWS V14.01,2013-05-08 01:30:00,
2013-05-07 22:00:00,54.2,51.6,30.11,NE,45,0.0,0.0,91,0.00,,,0.01,VWS V14.01,2013-05-08 02:00:00,
2013-05-07 22:30:00,54.4,52.4,30.11,NE,45,0.0,0.0,93,0.00,,,0.01,VWS V14.01,2013-05-08 02:30:00,
2013-05-07 23:00:00,54.6,52.6,30.11,NE,45,0.0,0.0,93,0.01,,,0.02,VWS V14.01,2013-05-08 03:00:00,
2013-05-07 23:30:00,54.6,52.9,30.11,NE,45,0.0,0.0,94,0.01,,,0.02,VWS V14.01,2013-05-08 03:30:00,